sensor_id;sensor_type;location;lat;lon;timestamp;P1;durP1;ratioP1;P2;durP2;ratioP2
5273;SDS011;56254;50.956;7.010;2022-10-16T00:01:06;3.97;;;2.70;;
5273;SDS011;56254;50.956;7.010;2022-10-16T00:03:37;7.57;;;3.10;;
5273;SDS011;56254;50.956;7.010;2022-10-16T00:06:07;1.73;;;1.63;;
5273;SDS011;56254;50.956;7.010;2022-10-16T00:08:33;1.80;;;1.60;;
5273;SDS011;56254;50.956;7.010;2022-10-16T00:11:18;2.83;;;2.20;;
5273;SDS011;56254;50.956;7.010;2022-10-16T00:13:46;5.10;;;2.27;;
5273;SDS011;56254;50.956;7.010;2022-10-16T00:16:14;2.30;;;1.97;;
5273;SDS011;56254;50.956;7.010;2022-10-16T00:18:41;3.30;;;1.80;;
5273;SDS011;56254;50.956;7.010;2022-10-16T00:21:08;1.70;;;1.60;;
5273;SDS011;56254;50.956;7.010;2022-10-16T00:23:36;2.60;;;1.70;;
5273;SDS011;56254;50.956;7.010;2022-10-16T00:26:03;2.70;;;1.40;;
5273;SDS011;56254;50.956;7.010;2022-10-16T00:28:31;1.50;;;1.43;;
5273;SDS011;56254;50.956;7.010;2022-10-16T00:30:57;1.60;;;1.37;;
5273;SDS011;56254;50.956;7.010;2022-10-16T00:33:23;8.30;;;1.67;;
5273;SDS011;56254;50.956;7.010;2022-10-16T00:35:50;1.70;;;1.60;;
5273;SDS011;56254;50.956;7.010;2022-10-16T00:38:16;5.37;;;2.20;;
5273;SDS011;56254;50.956;7.010;2022-10-16T00:40:42;1.40;;;1.40;;
5273;SDS011;56254;50.956;7.010;2022-10-16T00:43:32;1.47;;;1.40;;
5273;SDS011;56254;50.956;7.010;2022-10-16T00:46:20;2.00;;;1.80;;
5273;SDS011;56254;50.956;7.010;2022-10-16T00:48:51;5.43;;;1.73;;
5273;SDS011;56254;50.956;7.010;2022-10-16T00:51:46;1.50;;;1.40;;
5273;SDS011;56254;50.956;7.010;2022-10-16T00:54:21;7.47;;;2.37;;
5273;SDS011;56254;50.956;7.010;2022-10-16T00:56:49;2.60;;;1.73;;
5273;SDS011;56254;50.956;7.010;2022-10-16T00:59:26;5.03;;;1.90;;
5273;SDS011;56254;50.956;7.010;2022-10-16T01:01:54;7.20;;;1.47;;
5273;SDS011;56254;50.956;7.010;2022-10-16T01:04:21;2.57;;;1.60;;
5273;SDS011;56254;50.956;7.010;2022-10-16T01:09:55;2.27;;;2.03;;
5273;SDS011;56254;50.956;7.010;2022-10-16T01:15:32;5.80;;;1.80;;
5273;SDS011;56254;50.956;7.010;2022-10-16T01:18:08;8.43;;;1.73;;
5273;SDS011;56254;50.956;7.010;2022-10-16T01:20:38;3.47;;;2.30;;
5273;SDS011;56254;50.956;7.010;2022-10-16T01:26:23;2.37;;;2.00;;
5273;SDS011;56254;50.956;7.010;2022-10-16T01:31:24;2.10;;;1.87;;
5273;SDS011;56254;50.956;7.010;2022-10-16T01:33:57;5.83;;;1.90;;
5273;SDS011;56254;50.956;7.010;2022-10-16T01:36:35;4.50;;;1.63;;
5273;SDS011;56254;50.956;7.010;2022-10-16T01:39:05;1.93;;;1.73;;
5273;SDS011;56254;50.956;7.010;2022-10-16T01:41:38;4.93;;;1.80;;
5273;SDS011;56254;50.956;7.010;2022-10-16T01:44:10;4.30;;;1.90;;
5273;SDS011;56254;50.956;7.010;2022-10-16T01:46:52;1.50;;;1.40;;
5273;SDS011;56254;50.956;7.010;2022-10-16T01:49:20;2.40;;;1.80;;
5273;SDS011;56254;50.956;7.010;2022-10-16T01:51:49;5.50;;;1.93;;
5273;SDS011;56254;50.956;7.010;2022-10-16T01:54:19;5.47;;;2.40;;
5273;SDS011;56254;50.956;7.010;2022-10-16T01:56:47;1.90;;;1.67;;
5273;SDS011;56254;50.956;7.010;2022-10-16T01:59:15;2.23;;;1.83;;
5273;SDS011;56254;50.956;7.010;2022-10-16T02:01:45;2.40;;;2.27;;
5273;SDS011;56254;50.956;7.010;2022-10-16T02:04:24;5.10;;;2.13;;
5273;SDS011;56254;50.956;7.010;2022-10-16T02:07:01;2.60;;;2.40;;
5273;SDS011;56254;50.956;7.010;2022-10-16T02:09:29;5.30;;;3.43;;
5273;SDS011;56254;50.956;7.010;2022-10-16T02:11:56;15.17;;;8.23;;
5273;SDS011;56254;50.956;7.010;2022-10-16T02:14:24;16.87;;;8.90;;
5273;SDS011;56254;50.956;7.010;2022-10-16T02:16:51;18.43;;;9.17;;
5273;SDS011;56254;50.956;7.010;2022-10-16T02:19:17;14.13;;;7.90;;
5273;SDS011;56254;50.956;7.010;2022-10-16T02:21:56;19.30;;;8.43;;
5273;SDS011;56254;50.956;7.010;2022-10-16T02:24:28;12.37;;;8.30;;
5273;SDS011;56254;50.956;7.010;2022-10-16T02:27:34;7.33;;;5.43;;
5273;SDS011;56254;50.956;7.010;2022-10-16T02:30:07;8.03;;;4.90;;
5273;SDS011;56254;50.956;7.010;2022-10-16T02:32:56;7.27;;;3.47;;
5273;SDS011;56254;50.956;7.010;2022-10-16T02:35:25;6.23;;;2.70;;
5273;SDS011;56254;50.956;7.010;2022-10-16T02:37:52;18.33;;;2.97;;
5273;SDS011;56254;50.956;7.010;2022-10-16T02:40:19;9.50;;;3.30;;
5273;SDS011;56254;50.956;7.010;2022-10-16T02:42:49;6.73;;;2.57;;
5273;SDS011;56254;50.956;7.010;2022-10-16T02:45:16;3.50;;;2.23;;
5273;SDS011;56254;50.956;7.010;2022-10-16T02:47:43;2.73;;;2.37;;
5273;SDS011;56254;50.956;7.010;2022-10-16T02:50:09;1.90;;;1.80;;
5273;SDS011;56254;50.956;7.010;2022-10-16T02:52:34;8.03;;;1.93;;
5273;SDS011;56254;50.956;7.010;2022-10-16T02:55:00;2.53;;;1.70;;
5273;SDS011;56254;50.956;7.010;2022-10-16T02:57:26;2.83;;;2.13;;
5273;SDS011;56254;50.956;7.010;2022-10-16T02:59:51;4.40;;;2.23;;
5273;SDS011;56254;50.956;7.010;2022-10-16T03:02:17;4.07;;;1.90;;
5273;SDS011;56254;50.956;7.010;2022-10-16T03:04:43;3.33;;;1.93;;
5273;SDS011;56254;50.956;7.010;2022-10-16T03:07:09;6.07;;;1.90;;
5273;SDS011;56254;50.956;7.010;2022-10-16T03:09:35;2.33;;;2.13;;
5273;SDS011;56254;50.956;7.010;2022-10-16T03:12:00;1.90;;;1.80;;
5273;SDS011;56254;50.956;7.010;2022-10-16T03:14:26;3.27;;;1.70;;
5273;SDS011;56254;50.956;7.010;2022-10-16T03:16:52;7.00;;;1.70;;
5273;SDS011;56254;50.956;7.010;2022-10-16T03:19:18;8.27;;;1.70;;
5273;SDS011;56254;50.956;7.010;2022-10-16T03:21:43;2.00;;;1.80;;
5273;SDS011;56254;50.956;7.010;2022-10-16T03:24:09;2.30;;;2.10;;
5273;SDS011;56254;50.956;7.010;2022-10-16T03:26:35;2.27;;;1.60;;
5273;SDS011;56254;50.956;7.010;2022-10-16T03:29:01;2.93;;;1.50;;
5273;SDS011;56254;50.956;7.010;2022-10-16T03:31:29;9.80;;;2.40;;
5273;SDS011;56254;50.956;7.010;2022-10-16T03:33:55;6.30;;;1.90;;
5273;SDS011;56254;50.956;7.010;2022-10-16T03:36:24;2.37;;;1.90;;
5273;SDS011;56254;50.956;7.010;2022-10-16T03:38:49;1.60;;;1.50;;
5273;SDS011;56254;50.956;7.010;2022-10-16T03:41:15;7.63;;;2.20;;
5273;SDS011;56254;50.956;7.010;2022-10-16T03:43:41;1.80;;;1.70;;
5273;SDS011;56254;50.956;7.010;2022-10-16T03:46:07;7.07;;;2.50;;
5273;SDS011;56254;50.956;7.010;2022-10-16T03:48:33;1.60;;;1.50;;
5273;SDS011;56254;50.956;7.010;2022-10-16T03:50:59;1.90;;;1.63;;
5273;SDS011;56254;50.956;7.010;2022-10-16T03:53:24;2.93;;;1.93;;
5273;SDS011;56254;50.956;7.010;2022-10-16T03:55:50;3.93;;;2.03;;
5273;SDS011;56254;50.956;7.010;2022-10-16T03:58:16;1.33;;;1.23;;
5273;SDS011;56254;50.956;7.010;2022-10-16T04:00:42;5.90;;;2.20;;
5273;SDS011;56254;50.956;7.010;2022-10-16T04:03:09;2.53;;;2.37;;
5273;SDS011;56254;50.956;7.010;2022-10-16T04:05:35;2.07;;;1.87;;
5273;SDS011;56254;50.956;7.010;2022-10-16T04:08:01;2.20;;;2.00;;
5273;SDS011;56254;50.956;7.010;2022-10-16T04:10:27;5.90;;;1.37;;
5273;SDS011;56254;50.956;7.010;2022-10-16T04:12:52;6.27;;;1.80;;
5273;SDS011;56254;50.956;7.010;2022-10-16T04:15:24;4.60;;;1.30;;
5273;SDS011;56254;50.956;7.010;2022-10-16T04:17:50;3.13;;;2.00;;
5273;SDS011;56254;50.956;7.010;2022-10-16T04:20:16;3.60;;;1.43;;
5273;SDS011;56254;50.956;7.010;2022-10-16T04:22:42;4.13;;;1.57;;
5273;SDS011;56254;50.956;7.010;2022-10-16T04:25:08;2.80;;;1.60;;
5273;SDS011;56254;50.956;7.010;2022-10-16T04:27:34;1.50;;;1.40;;
5273;SDS011;56254;50.956;7.010;2022-10-16T04:30:00;1.47;;;1.10;;
5273;SDS011;56254;50.956;7.010;2022-10-16T04:32:26;4.00;;;1.53;;
5273;SDS011;56254;50.956;7.010;2022-10-16T04:34:52;1.30;;;1.30;;
5273;SDS011;56254;50.956;7.010;2022-10-16T04:37:18;1.30;;;1.20;;
5273;SDS011;56254;50.956;7.010;2022-10-16T04:39:47;1.03;;;0.90;;
5273;SDS011;56254;50.956;7.010;2022-10-16T04:42:13;1.50;;;1.27;;
5273;SDS011;56254;50.956;7.010;2022-10-16T04:44:39;5.40;;;1.30;;
5273;SDS011;56254;50.956;7.010;2022-10-16T04:47:04;1.97;;;1.30;;
5273;SDS011;56254;50.956;7.010;2022-10-16T04:49:30;1.30;;;1.27;;
5273;SDS011;56254;50.956;7.010;2022-10-16T04:51:56;2.77;;;1.37;;
5273;SDS011;56254;50.956;7.010;2022-10-16T04:54:22;4.53;;;1.83;;
5273;SDS011;56254;50.956;7.010;2022-10-16T04:56:47;6.63;;;1.60;;
5273;SDS011;56254;50.956;7.010;2022-10-16T04:59:15;1.40;;;1.20;;
5273;SDS011;56254;50.956;7.010;2022-10-16T05:01:42;2.13;;;1.30;;
5273;SDS011;56254;50.956;7.010;2022-10-16T05:04:08;2.20;;;1.77;;
5273;SDS011;56254;50.956;7.010;2022-10-16T05:06:34;6.83;;;1.30;;
5273;SDS011;56254;50.956;7.010;2022-10-16T05:09:00;6.90;;;1.20;;
5273;SDS011;56254;50.956;7.010;2022-10-16T05:11:25;0.90;;;0.90;;
5273;SDS011;56254;50.956;7.010;2022-10-16T05:13:51;4.90;;;1.43;;
5273;SDS011;56254;50.956;7.010;2022-10-16T05:16:17;1.97;;;1.60;;
5273;SDS011;56254;50.956;7.010;2022-10-16T05:18:42;1.23;;;1.13;;
5273;SDS011;56254;50.956;7.010;2022-10-16T05:21:08;5.33;;;1.90;;
5273;SDS011;56254;50.956;7.010;2022-10-16T05:23:34;3.90;;;1.20;;
5273;SDS011;56254;50.956;7.010;2022-10-16T05:26:01;7.17;;;1.57;;
5273;SDS011;56254;50.956;7.010;2022-10-16T05:28:27;2.40;;;1.60;;
5273;SDS011;56254;50.956;7.010;2022-10-16T05:30:54;2.00;;;1.13;;
5273;SDS011;56254;50.956;7.010;2022-10-16T05:33:20;1.77;;;1.33;;
5273;SDS011;56254;50.956;7.010;2022-10-16T05:35:47;2.40;;;0.90;;
5273;SDS011;56254;50.956;7.010;2022-10-16T05:38:13;1.27;;;1.17;;
5273;SDS011;56254;50.956;7.010;2022-10-16T05:40:38;1.83;;;1.27;;
5273;SDS011;56254;50.956;7.010;2022-10-16T05:43:04;1.47;;;1.23;;
5273;SDS011;56254;50.956;7.010;2022-10-16T05:45:30;2.40;;;1.40;;
5273;SDS011;56254;50.956;7.010;2022-10-16T05:47:55;1.60;;;1.50;;
5273;SDS011;56254;50.956;7.010;2022-10-16T05:50:21;4.90;;;1.70;;
5273;SDS011;56254;50.956;7.010;2022-10-16T05:52:47;5.70;;;1.87;;
5273;SDS011;56254;50.956;7.010;2022-10-16T05:55:12;10.90;;;1.60;;
5273;SDS011;56254;50.956;7.010;2022-10-16T05:57:39;1.20;;;1.20;;
5273;SDS011;56254;50.956;7.010;2022-10-16T06:00:05;1.70;;;1.60;;
5273;SDS011;56254;50.956;7.010;2022-10-16T06:02:31;20.70;;;2.07;;
5273;SDS011;56254;50.956;7.010;2022-10-16T06:04:56;2.10;;;1.70;;
5273;SDS011;56254;50.956;7.010;2022-10-16T06:07:22;3.90;;;1.50;;
5273;SDS011;56254;50.956;7.010;2022-10-16T06:09:49;1.67;;;1.57;;
5273;SDS011;56254;50.956;7.010;2022-10-16T06:12:15;10.50;;;1.60;;
5273;SDS011;56254;50.956;7.010;2022-10-16T06:14:42;1.37;;;1.37;;
5273;SDS011;56254;50.956;7.010;2022-10-16T06:17:09;9.53;;;2.07;;
5273;SDS011;56254;50.956;7.010;2022-10-16T06:19:34;1.73;;;1.60;;
5273;SDS011;56254;50.956;7.010;2022-10-16T06:22:01;8.17;;;2.20;;
5273;SDS011;56254;50.956;7.010;2022-10-16T06:24:29;9.53;;;3.00;;
5273;SDS011;56254;50.956;7.010;2022-10-16T06:26:55;1.97;;;1.83;;
5273;SDS011;56254;50.956;7.010;2022-10-16T06:29:21;3.33;;;1.77;;
5273;SDS011;56254;50.956;7.010;2022-10-16T06:31:47;8.33;;;2.30;;
5273;SDS011;56254;50.956;7.010;2022-10-16T06:34:13;5.50;;;2.10;;
5273;SDS011;56254;50.956;7.010;2022-10-16T06:36:39;2.73;;;2.13;;
5273;SDS011;56254;50.956;7.010;2022-10-16T06:39:06;1.90;;;1.80;;
5273;SDS011;56254;50.956;7.010;2022-10-16T06:41:32;2.30;;;1.47;;
5273;SDS011;56254;50.956;7.010;2022-10-16T06:43:59;6.20;;;2.60;;
5273;SDS011;56254;50.956;7.010;2022-10-16T06:46:25;5.27;;;2.57;;
5273;SDS011;56254;50.956;7.010;2022-10-16T06:48:54;2.00;;;1.80;;
5273;SDS011;56254;50.956;7.010;2022-10-16T06:51:21;4.00;;;2.73;;
5273;SDS011;56254;50.956;7.010;2022-10-16T06:53:48;3.23;;;1.50;;
5273;SDS011;56254;50.956;7.010;2022-10-16T06:56:19;2.90;;;1.60;;
5273;SDS011;56254;50.956;7.010;2022-10-16T06:58:46;1.50;;;1.40;;
5273;SDS011;56254;50.956;7.010;2022-10-16T07:01:12;6.30;;;1.87;;
5273;SDS011;56254;50.956;7.010;2022-10-16T07:03:42;2.87;;;1.97;;
5273;SDS011;56254;50.956;7.010;2022-10-16T07:06:09;12.83;;;2.20;;
5273;SDS011;56254;50.956;7.010;2022-10-16T07:08:36;1.60;;;1.50;;
5273;SDS011;56254;50.956;7.010;2022-10-16T07:11:06;2.10;;;1.60;;
5273;SDS011;56254;50.956;7.010;2022-10-16T07:13:33;2.93;;;1.23;;
5273;SDS011;56254;50.956;7.010;2022-10-16T07:16:13;9.60;;;2.40;;
5273;SDS011;56254;50.956;7.010;2022-10-16T07:18:39;2.37;;;1.80;;
5273;SDS011;56254;50.956;7.010;2022-10-16T07:21:08;2.60;;;1.50;;
5273;SDS011;56254;50.956;7.010;2022-10-16T07:23:34;1.43;;;1.33;;
5273;SDS011;56254;50.956;7.010;2022-10-16T07:26:01;7.50;;;2.17;;
5273;SDS011;56254;50.956;7.010;2022-10-16T07:28:27;3.90;;;1.57;;
5273;SDS011;56254;50.956;7.010;2022-10-16T07:30:53;2.10;;;1.80;;
5273;SDS011;56254;50.956;7.010;2022-10-16T07:33:20;3.97;;;1.80;;
5273;SDS011;56254;50.956;7.010;2022-10-16T07:35:53;2.20;;;1.50;;
5273;SDS011;56254;50.956;7.010;2022-10-16T07:38:19;3.17;;;2.53;;
5273;SDS011;56254;50.956;7.010;2022-10-16T07:40:46;2.10;;;1.90;;
5273;SDS011;56254;50.956;7.010;2022-10-16T07:43:12;4.00;;;1.73;;
5273;SDS011;56254;50.956;7.010;2022-10-16T07:45:46;9.47;;;1.73;;
5273;SDS011;56254;50.956;7.010;2022-10-16T07:48:12;6.37;;;1.50;;
5273;SDS011;56254;50.956;7.010;2022-10-16T07:50:38;8.33;;;1.70;;
5273;SDS011;56254;50.956;7.010;2022-10-16T07:53:04;4.57;;;1.60;;
5273;SDS011;56254;50.956;7.010;2022-10-16T07:55:30;2.30;;;1.90;;
5273;SDS011;56254;50.956;7.010;2022-10-16T07:57:56;2.40;;;1.63;;
5273;SDS011;56254;50.956;7.010;2022-10-16T08:00:22;5.40;;;2.20;;
5273;SDS011;56254;50.956;7.010;2022-10-16T08:02:48;6.53;;;1.80;;
5273;SDS011;56254;50.956;7.010;2022-10-16T08:05:14;4.37;;;2.20;;
5273;SDS011;56254;50.956;7.010;2022-10-16T08:07:40;1.93;;;1.70;;
5273;SDS011;56254;50.956;7.010;2022-10-16T08:10:06;2.30;;;1.90;;
5273;SDS011;56254;50.956;7.010;2022-10-16T08:12:32;10.13;;;2.20;;
5273;SDS011;56254;50.956;7.010;2022-10-16T08:14:58;4.10;;;1.83;;
5273;SDS011;56254;50.956;7.010;2022-10-16T08:17:24;2.57;;;2.10;;
5273;SDS011;56254;50.956;7.010;2022-10-16T08:19:50;3.67;;;1.73;;
5273;SDS011;56254;50.956;7.010;2022-10-16T08:22:16;6.53;;;2.33;;
5273;SDS011;56254;50.956;7.010;2022-10-16T08:24:44;7.00;;;2.70;;
5273;SDS011;56254;50.956;7.010;2022-10-16T08:27:10;2.43;;;1.73;;
5273;SDS011;56254;50.956;7.010;2022-10-16T08:29:36;1.40;;;1.40;;
5273;SDS011;56254;50.956;7.010;2022-10-16T08:32:03;7.80;;;2.40;;
5273;SDS011;56254;50.956;7.010;2022-10-16T08:34:29;2.87;;;1.50;;
5273;SDS011;56254;50.956;7.010;2022-10-16T08:36:55;1.50;;;1.40;;
5273;SDS011;56254;50.956;7.010;2022-10-16T08:39:21;2.10;;;1.30;;
5273;SDS011;56254;50.956;7.010;2022-10-16T08:47:02;2.73;;;1.37;;
5273;SDS011;56254;50.956;7.010;2022-10-16T08:49:34;1.53;;;1.20;;
5273;SDS011;56254;50.956;7.010;2022-10-16T08:52:01;3.00;;;1.10;;
5273;SDS011;56254;50.956;7.010;2022-10-16T08:54:46;1.13;;;1.13;;
5273;SDS011;56254;50.956;7.010;2022-10-16T08:57:22;3.43;;;1.20;;
5273;SDS011;56254;50.956;7.010;2022-10-16T08:59:49;2.47;;;1.00;;
5273;SDS011;56254;50.956;7.010;2022-10-16T09:08:14;7.63;;;1.33;;
5273;SDS011;56254;50.956;7.010;2022-10-16T09:10:56;1.63;;;0.80;;
5273;SDS011;56254;50.956;7.010;2022-10-16T09:13:27;1.17;;;1.00;;
5273;SDS011;56254;50.956;7.010;2022-10-16T09:19:09;1.63;;;0.90;;
5273;SDS011;56254;50.956;7.010;2022-10-16T09:21:44;1.10;;;1.00;;
5273;SDS011;56254;50.956;7.010;2022-10-16T09:24:20;1.73;;;1.13;;
5273;SDS011;56254;50.956;7.010;2022-10-16T09:26:49;2.93;;;1.10;;
5273;SDS011;56254;50.956;7.010;2022-10-16T09:29:15;2.73;;;1.10;;
5273;SDS011;56254;50.956;7.010;2022-10-16T09:31:45;4.20;;;1.10;;
5273;SDS011;56254;50.956;7.010;2022-10-16T09:34:22;2.83;;;0.97;;
5273;SDS011;56254;50.956;7.010;2022-10-16T09:36:55;5.60;;;1.30;;
5273;SDS011;56254;50.956;7.010;2022-10-16T09:39:22;3.50;;;1.00;;
5273;SDS011;56254;50.956;7.010;2022-10-16T09:41:48;5.37;;;1.03;;
5273;SDS011;56254;50.956;7.010;2022-10-16T09:44:17;1.27;;;0.80;;
5273;SDS011;56254;50.956;7.010;2022-10-16T09:46:48;2.90;;;1.17;;
5273;SDS011;56254;50.956;7.010;2022-10-16T09:49:21;1.43;;;1.00;;
5273;SDS011;56254;50.956;7.010;2022-10-16T09:51:49;1.63;;;1.27;;
5273;SDS011;56254;50.956;7.010;2022-10-16T09:54:17;2.90;;;1.50;;
5273;SDS011;56254;50.956;7.010;2022-10-16T09:56:44;2.40;;;1.40;;
5273;SDS011;56254;50.956;7.010;2022-10-16T09:59:18;0.93;;;0.93;;
5273;SDS011;56254;50.956;7.010;2022-10-16T10:01:54;1.67;;;1.20;;
5273;SDS011;56254;50.956;7.010;2022-10-16T10:04:21;4.90;;;0.97;;
5273;SDS011;56254;50.956;7.010;2022-10-16T10:06:49;2.40;;;1.10;;
5273;SDS011;56254;50.956;7.010;2022-10-16T10:11:55;1.60;;;0.93;;
5273;SDS011;56254;50.956;7.010;2022-10-16T10:14:25;1.33;;;0.70;;
5273;SDS011;56254;50.956;7.010;2022-10-16T10:17:01;4.90;;;1.13;;
5273;SDS011;56254;50.956;7.010;2022-10-16T10:22:19;1.57;;;1.00;;
5273;SDS011;56254;50.956;7.010;2022-10-16T10:30:37;1.57;;;0.97;;
5273;SDS011;56254;50.956;7.010;2022-10-16T10:47:01;4.97;;;0.93;;
5273;SDS011;56254;50.956;7.010;2022-10-16T10:52:38;0.70;;;0.70;;
5273;SDS011;56254;50.956;7.010;2022-10-16T10:55:31;1.33;;;1.00;;
5273;SDS011;56254;50.956;7.010;2022-10-16T11:06:24;4.63;;;0.90;;
5273;SDS011;56254;50.956;7.010;2022-10-16T11:08:58;2.60;;;0.90;;
5273;SDS011;56254;50.956;7.010;2022-10-16T11:13:58;2.30;;;0.83;;
5273;SDS011;56254;50.956;7.010;2022-10-16T11:21:45;3.13;;;1.10;;
5273;SDS011;56254;50.956;7.010;2022-10-16T11:24:19;4.47;;;1.00;;
5273;SDS011;56254;50.956;7.010;2022-10-16T11:27:00;3.13;;;1.10;;
5273;SDS011;56254;50.956;7.010;2022-10-16T11:29:33;1.43;;;1.13;;
5273;SDS011;56254;50.956;7.010;2022-10-16T11:32:11;6.30;;;0.97;;
5273;SDS011;56254;50.956;7.010;2022-10-16T11:34:50;2.87;;;1.27;;
5273;SDS011;56254;50.956;7.010;2022-10-16T11:37:26;7.13;;;0.97;;
5273;SDS011;56254;50.956;7.010;2022-10-16T11:39:57;1.63;;;0.80;;
5273;SDS011;56254;50.956;7.010;2022-10-16T11:42:40;1.23;;;0.77;;
5273;SDS011;56254;50.956;7.010;2022-10-16T11:48:15;0.80;;;0.80;;
5273;SDS011;56254;50.956;7.010;2022-10-16T11:51:19;3.20;;;1.00;;
5273;SDS011;56254;50.956;7.010;2022-10-16T11:53:58;1.70;;;0.70;;
5273;SDS011;56254;50.956;7.010;2022-10-16T11:56:35;1.00;;;0.60;;
5273;SDS011;56254;50.956;7.010;2022-10-16T11:59:12;3.67;;;0.90;;
5273;SDS011;56254;50.956;7.010;2022-10-16T12:02:16;3.47;;;1.10;;
5273;SDS011;56254;50.956;7.010;2022-10-16T12:04:43;3.80;;;0.90;;
5273;SDS011;56254;50.956;7.010;2022-10-16T12:07:21;2.10;;;0.90;;
5273;SDS011;56254;50.956;7.010;2022-10-16T12:09:52;1.53;;;0.97;;
5273;SDS011;56254;50.956;7.010;2022-10-16T12:15:18;5.10;;;1.60;;
5273;SDS011;56254;50.956;7.010;2022-10-16T12:17:54;1.33;;;1.10;;
5273;SDS011;56254;50.956;7.010;2022-10-16T12:20:25;2.40;;;1.20;;
5273;SDS011;56254;50.956;7.010;2022-10-16T12:22:59;2.60;;;0.87;;
5273;SDS011;56254;50.956;7.010;2022-10-16T12:25:44;3.93;;;0.77;;
5273;SDS011;56254;50.956;7.010;2022-10-16T12:28:21;4.20;;;1.00;;
5273;SDS011;56254;50.956;7.010;2022-10-16T12:31:09;4.30;;;1.40;;
5273;SDS011;56254;50.956;7.010;2022-10-16T12:33:35;2.63;;;0.97;;
5273;SDS011;56254;50.956;7.010;2022-10-16T12:36:06;1.63;;;1.00;;
5273;SDS011;56254;50.956;7.010;2022-10-16T12:38:46;1.90;;;1.20;;
5273;SDS011;56254;50.956;7.010;2022-10-16T12:41:12;1.20;;;1.10;;
5273;SDS011;56254;50.956;7.010;2022-10-16T12:43:56;0.70;;;0.70;;
5273;SDS011;56254;50.956;7.010;2022-10-16T12:46:33;4.27;;;0.83;;
5273;SDS011;56254;50.956;7.010;2022-10-16T12:49:14;0.90;;;0.70;;
5273;SDS011;56254;50.956;7.010;2022-10-16T12:51:47;2.53;;;1.13;;
5273;SDS011;56254;50.956;7.010;2022-10-16T12:54:24;1.23;;;0.80;;
5273;SDS011;56254;50.956;7.010;2022-10-16T12:56:58;1.80;;;0.77;;
5273;SDS011;56254;50.956;7.010;2022-10-16T13:05:16;2.30;;;1.10;;
5273;SDS011;56254;50.956;7.010;2022-10-16T13:13:27;0.70;;;0.70;;
5273;SDS011;56254;50.956;7.010;2022-10-16T13:18:39;0.97;;;0.80;;
5273;SDS011;56254;50.956;7.010;2022-10-16T13:21:24;1.07;;;0.97;;
5273;SDS011;56254;50.956;7.010;2022-10-16T13:24:13;2.90;;;0.70;;
5273;SDS011;56254;50.956;7.010;2022-10-16T13:30:14;1.67;;;0.60;;
5273;SDS011;56254;50.956;7.010;2022-10-16T13:32:50;1.20;;;0.70;;
5273;SDS011;56254;50.956;7.010;2022-10-16T13:35:29;2.60;;;1.07;;
5273;SDS011;56254;50.956;7.010;2022-10-16T13:38:13;1.43;;;0.73;;
5273;SDS011;56254;50.956;7.010;2022-10-16T13:46:14;1.80;;;0.93;;
5273;SDS011;56254;50.956;7.010;2022-10-16T13:48:41;1.57;;;0.73;;
5273;SDS011;56254;50.956;7.010;2022-10-16T13:51:12;2.20;;;2.00;;
5273;SDS011;56254;50.956;7.010;2022-10-16T13:53:42;2.30;;;1.00;;
5273;SDS011;56254;50.956;7.010;2022-10-16T13:56:13;4.50;;;1.07;;
5273;SDS011;56254;50.956;7.010;2022-10-16T13:58:41;0.87;;;0.87;;
5273;SDS011;56254;50.956;7.010;2022-10-16T14:03:47;1.53;;;1.10;;
5273;SDS011;56254;50.956;7.010;2022-10-16T14:06:20;2.20;;;1.10;;
5273;SDS011;56254;50.956;7.010;2022-10-16T14:08:59;8.07;;;1.13;;
5273;SDS011;56254;50.956;7.010;2022-10-16T14:11:32;2.20;;;0.90;;
5273;SDS011;56254;50.956;7.010;2022-10-16T14:14:01;1.10;;;1.00;;
5273;SDS011;56254;50.956;7.010;2022-10-16T14:16:30;3.93;;;1.10;;
5273;SDS011;56254;50.956;7.010;2022-10-16T14:18:58;0.70;;;0.70;;
5273;SDS011;56254;50.956;7.010;2022-10-16T14:21:33;5.50;;;2.03;;
5273;SDS011;56254;50.956;7.010;2022-10-16T14:23:59;2.07;;;1.00;;
5273;SDS011;56254;50.956;7.010;2022-10-16T14:26:41;3.80;;;0.90;;
5273;SDS011;56254;50.956;7.010;2022-10-16T14:29:17;10.13;;;1.27;;
5273;SDS011;56254;50.956;7.010;2022-10-16T14:31:53;0.93;;;0.93;;
5273;SDS011;56254;50.956;7.010;2022-10-16T14:34:31;1.93;;;1.00;;
5273;SDS011;56254;50.956;7.010;2022-10-16T14:37:05;5.00;;;1.90;;
5273;SDS011;56254;50.956;7.010;2022-10-16T14:39:33;6.73;;;1.20;;
5273;SDS011;56254;50.956;7.010;2022-10-16T14:41:59;1.10;;;1.00;;
5273;SDS011;56254;50.956;7.010;2022-10-16T14:44:27;1.30;;;1.20;;
5273;SDS011;56254;50.956;7.010;2022-10-16T14:46:56;3.73;;;1.10;;
5273;SDS011;56254;50.956;7.010;2022-10-16T14:49:22;1.80;;;1.17;;
5273;SDS011;56254;50.956;7.010;2022-10-16T14:51:49;1.77;;;1.70;;
5273;SDS011;56254;50.956;7.010;2022-10-16T14:54:15;2.50;;;1.07;;
5273;SDS011;56254;50.956;7.010;2022-10-16T14:56:50;4.30;;;1.30;;
5273;SDS011;56254;50.956;7.010;2022-10-16T15:01:58;1.50;;;1.40;;
5273;SDS011;56254;50.956;7.010;2022-10-16T15:04:24;10.70;;;1.43;;
5273;SDS011;56254;50.956;7.010;2022-10-16T15:06:49;1.27;;;1.10;;
5273;SDS011;56254;50.956;7.010;2022-10-16T15:09:15;0.90;;;0.90;;
5273;SDS011;56254;50.956;7.010;2022-10-16T15:11:41;2.70;;;1.53;;
5273;SDS011;56254;50.956;7.010;2022-10-16T15:14:15;1.33;;;1.23;;
5273;SDS011;56254;50.956;7.010;2022-10-16T15:16:41;4.83;;;2.13;;
5273;SDS011;56254;50.956;7.010;2022-10-16T15:19:06;2.60;;;1.23;;
5273;SDS011;56254;50.956;7.010;2022-10-16T15:21:32;2.53;;;1.20;;
5273;SDS011;56254;50.956;7.010;2022-10-16T15:23:58;4.80;;;2.27;;
5273;SDS011;56254;50.956;7.010;2022-10-16T15:26:25;1.33;;;1.23;;
5273;SDS011;56254;50.956;7.010;2022-10-16T15:28:53;1.30;;;1.13;;
5273;SDS011;56254;50.956;7.010;2022-10-16T15:31:19;11.00;;;1.80;;
5273;SDS011;56254;50.956;7.010;2022-10-16T15:33:48;1.83;;;1.60;;
5273;SDS011;56254;50.956;7.010;2022-10-16T15:36:27;2.20;;;1.33;;
5273;SDS011;56254;50.956;7.010;2022-10-16T15:38:53;7.30;;;1.30;;
5273;SDS011;56254;50.956;7.010;2022-10-16T15:41:20;2.60;;;1.10;;
5273;SDS011;56254;50.956;7.010;2022-10-16T15:43:50;4.30;;;1.20;;
5273;SDS011;56254;50.956;7.010;2022-10-16T15:46:20;2.63;;;1.43;;
5273;SDS011;56254;50.956;7.010;2022-10-16T15:48:47;2.30;;;1.40;;
5273;SDS011;56254;50.956;7.010;2022-10-16T15:51:27;4.50;;;1.10;;
5273;SDS011;56254;50.956;7.010;2022-10-16T15:53:55;4.23;;;2.10;;
5273;SDS011;56254;50.956;7.010;2022-10-16T15:56:22;2.63;;;1.60;;
5273;SDS011;56254;50.956;7.010;2022-10-16T16:01:39;4.70;;;1.67;;
5273;SDS011;56254;50.956;7.010;2022-10-16T16:04:04;2.20;;;1.60;;
5273;SDS011;56254;50.956;7.010;2022-10-16T16:06:36;4.47;;;2.40;;
5273;SDS011;56254;50.956;7.010;2022-10-16T16:09:04;11.57;;;1.97;;
5273;SDS011;56254;50.956;7.010;2022-10-16T16:11:29;5.80;;;2.40;;
5273;SDS011;56254;50.956;7.010;2022-10-16T16:13:58;1.77;;;1.67;;
5273;SDS011;56254;50.956;7.010;2022-10-16T16:16:23;6.67;;;1.83;;
5273;SDS011;56254;50.956;7.010;2022-10-16T16:18:50;6.87;;;2.37;;
5273;SDS011;56254;50.956;7.010;2022-10-16T16:21:26;2.43;;;2.07;;
5273;SDS011;56254;50.956;7.010;2022-10-16T16:37:30;6.67;;;2.00;;
5273;SDS011;56254;50.956;7.010;2022-10-16T16:39:56;5.13;;;2.30;;
5273;SDS011;56254;50.956;7.010;2022-10-16T16:42:25;5.33;;;1.80;;
5273;SDS011;56254;50.956;7.010;2022-10-16T16:44:51;3.43;;;1.90;;
5273;SDS011;56254;50.956;7.010;2022-10-16T16:47:17;3.30;;;1.83;;
5273;SDS011;56254;50.956;7.010;2022-10-16T16:49:43;4.30;;;1.70;;
5273;SDS011;56254;50.956;7.010;2022-10-16T16:52:11;1.60;;;1.50;;
5273;SDS011;56254;50.956;7.010;2022-10-16T16:54:37;7.00;;;2.07;;
5273;SDS011;56254;50.956;7.010;2022-10-16T16:57:02;3.00;;;1.30;;
5273;SDS011;56254;50.956;7.010;2022-10-16T16:59:29;1.67;;;1.57;;
5273;SDS011;56254;50.956;7.010;2022-10-16T17:01:57;3.87;;;1.60;;
5273;SDS011;56254;50.956;7.010;2022-10-16T17:04:24;1.40;;;1.30;;
5273;SDS011;56254;50.956;7.010;2022-10-16T17:06:52;5.60;;;1.37;;
5273;SDS011;56254;50.956;7.010;2022-10-16T17:09:19;1.70;;;1.60;;
5273;SDS011;56254;50.956;7.010;2022-10-16T17:11:45;2.57;;;2.07;;
5273;SDS011;56254;50.956;7.010;2022-10-16T17:14:13;1.30;;;1.20;;
5273;SDS011;56254;50.956;7.010;2022-10-16T17:16:39;1.37;;;1.27;;